Time;durP1;ratioP1;P1;durP2;ratioP2;P2;SDS_P1;SDS_P2;PMS_P1;PMS_P2;Temp;Humidity;BMP_temperature;BMP_pressure;BME280_temperature;BME280_humidity;BME280_pressure;Samples;Min_cycle;Max_cycle;Signal;HPM_P1;HPM_P2
2023/12/27 00:01:54;;;;;;;0.10;0.10;;;7.40;99.90;;;;;;5076092;28;20077;-75
2023/12/27 00:04:21;;;;;;;1.48;1.48;;;7.40;99.90;;;;;;5073328;28;20076;-77
2023/12/27 00:06:47;;;;;;;0.10;0.10;;;7.20;99.90;;;;;;5076475;28;20517;-79
2023/12/27 00:09:12;;;;;;;0.10;0.10;;;7.20;99.90;;;;;;5071557;28;20020;-78
2023/12/27 00:11:38;;;;;;;1.15;1.15;;;7.10;99.90;;;;;;5070741;28;20025;-81
2023/12/27 00:14:04;;;;;;;0.10;0.10;;;7.10;99.90;;;;;;5062511;28;20031;-76
2023/12/27 00:16:30;;;;;;;0.10;0.10;;;5.70;99.90;;;;;;5066905;28;20025;-76
2023/12/27 00:18:56;;;;;;;0.10;0.10;;;7.10;99.90;;;;;;5062089;28;20051;-77
2023/12/27 00:21:22;;;;;;;0.20;0.20;;;7.10;99.90;;;;;;5068211;28;20111;-76
2023/12/27 00:23:48;;;;;;;0.10;0.10;;;7.10;99.90;;;;;;5066445;28;20024;-75
2023/12/27 00:26:14;;;;;;;0.10;0.10;;;7.40;99.90;;;;;;5061099;28;20528;-76
2023/12/27 00:28:40;;;;;;;0.10;0.10;;;7.00;99.90;;;;;;5064036;28;20020;-77
2023/12/27 00:31:06;;;;;;;1.73;1.67;;;7.00;99.90;;;;;;5062609;28;20024;-75
2023/12/27 00:33:31;;;;;;;0.10;0.10;;;7.00;99.90;;;;;;5064170;28;20031;-75
2023/12/27 00:35:57;;;;;;;0.63;0.63;;;7.00;99.90;;;;;;5063808;28;20029;-77
2023/12/27 00:38:23;;;;;;;0.05;0.05;;;6.90;99.90;;;;;;5065134;28;20066;-75
2023/12/27 00:40:49;;;;;;;0.10;0.10;;;6.90;99.90;;;;;;5066717;28;20040;-76
2023/12/27 00:43:15;;;;;;;0.10;0.10;;;6.90;99.90;;;;;;5075489;28;20024;-76
2023/12/27 00:45:41;;;;;;;0.00;0.00;;;6.90;99.90;;;;;;5071541;28;20097;-75
2023/12/27 00:48:07;;;;;;;0.10;0.10;;;6.90;99.90;;;;;;5066652;28;20055;-76
2023/12/27 00:50:33;;;;;;;0.05;0.05;;;6.90;99.90;;;;;;5061912;28;20021;-79
2023/12/27 00:52:58;;;;;;;0.10;0.10;;;6.90;99.90;;;;;;5063008;28;20025;-75
2023/12/27 00:55:24;;;;;;;0.17;0.17;;;6.80;99.90;;;;;;5061408;28;20107;-75
2023/12/27 00:57:50;;;;;;;0.10;0.10;;;6.70;99.90;;;;;;5060277;28;20236;-75
2023/12/27 01:00:17;;;;;;;0.10;0.10;;;6.70;99.90;;;;;;5069353;28;20093;-79
2023/12/27 01:02:43;;;;;;;0.10;0.10;;;6.70;99.90;;;;;;5030967;28;1257363;-78
2023/12/27 01:05:09;;;;;;;0.00;0.00;;;6.70;99.90;;;;;;5063488;28;20504;-78
2023/12/27 01:07:35;;;;;;;0.10;0.10;;;6.70;99.90;;;;;;5062991;28;20124;-75
2023/12/27 01:10:00;;;;;;;0.10;0.10;;;6.70;99.90;;;;;;5063459;28;20107;-79
2023/12/27 01:12:26;;;;;;;0.10;0.10;;;6.70;99.90;;;;;;5062595;28;20032;-76
2023/12/27 01:14:52;;;;;;;0.08;0.08;;;6.70;99.90;;;;;;5062376;28;20033;-77
2023/12/27 01:17:18;;;;;;;0.03;0.03;;;6.70;99.90;;;;;;5062267;28;20498;-77
2023/12/27 01:19:44;;;;;;;0.10;0.10;;;6.70;99.90;;;;;;5061978;28;20039;-77
2023/12/27 01:22:10;;;;;;;3.95;3.70;;;6.70;99.90;;;;;;5064341;28;20023;-76
2023/12/27 01:24:36;;;;;;;0.10;0.10;;;6.70;99.90;;;;;;5078490;28;20088;-76
2023/12/27 01:27:02;;;;;;;0.20;0.20;;;6.50;99.90;;;;;;5082235;28;20020;-78
2023/12/27 01:29:27;;;;;;;0.00;0.00;;;6.50;99.90;;;;;;5082771;28;20085;-76
2023/12/27 01:31:53;;;;;;;0.10;0.10;;;6.50;99.90;;;;;;5082509;28;20020;-76
2023/12/27 01:34:19;;;;;;;0.10;0.10;;;6.60;99.90;;;;;;5084261;28;20032;-79
2023/12/27 01:36:45;;;;;;;0.05;0.05;;;6.70;99.90;;;;;;5081582;28;20043;-78
2023/12/27 01:39:11;;;;;;;0.10;0.10;;;6.70;99.90;;;;;;5085874;28;20055;-75
2023/12/27 01:41:37;;;;;;;0.10;0.10;;;6.70;99.90;;;;;;5080353;28;20036;-76
2023/12/27 01:44:04;;;;;;;0.10;0.10;;;6.60;99.90;;;;;;5080520;28;20017;-77
2023/12/27 01:46:31;;;;;;;0.10;0.10;;;6.60;99.90;;;;;;5081361;28;20028;-76
2023/12/27 01:49:00;;;;;;;0.10;0.10;;;6.50;99.90;;;;;;5081705;28;20024;-76
2023/12/27 01:51:27;;;;;;;0.10;0.10;;;6.50;99.90;;;;;;5081436;28;20051;-77
2023/12/27 01:53:53;;;;;;;0.10;0.10;;;6.40;99.90;;;;;;5079969;28;20027;-75
2023/12/27 01:56:19;;;;;;;0.45;0.45;;;6.20;99.90;;;;;;5082378;28;20028;-77
2023/12/27 01:58:44;;;;;;;0.00;0.00;;;6.10;99.90;;;;;;5081753;28;20058;-76
2023/12/27 02:01:10;;;;;;;0.10;0.10;;;6.00;99.90;;;;;;5080919;28;20034;-77
2023/12/27 02:03:36;;;;;;;1.00;1.00;;;6.00;99.90;;;;;;5078622;28;20047;-77
2023/12/27 02:06:02;;;;;;;0.10;0.10;;;5.90;99.90;;;;;;5081843;28;20024;-78
2023/12/27 02:08:28;;;;;;;0.10;0.10;;;5.90;99.90;;;;;;5082386;28;20025;-80
2023/12/27 02:10:55;;;;;;;0.00;0.00;;;5.90;99.90;;;;;;5088978;28;20031;-78
2023/12/27 02:13:21;;;;;;;0.05;0.05;;;5.80;99.90;;;;;;5069641;28;20016;-75
2023/12/27 02:15:47;;;;;;;0.00;0.00;;;5.80;99.90;;;;;;5065769;28;20036;-79
2023/12/27 02:18:14;;;;;;;0.00;0.00;;;5.80;99.90;;;;;;5080011;28;20031;-80
2023/12/27 02:20:40;;;;;;;0.00;0.00;;;5.80;99.90;;;;;;5082845;28;20115;-76
2023/12/27 02:23:10;;;;;;;0.05;0.05;;;6.30;99.90;;;;;;5084771;28;20016;-77
2023/12/27 02:25:36;;;;;;;0.32;0.32;;;5.70;99.90;;;;;;5083000;28;20020;-78
2023/12/27 02:28:02;;;;;;;1.35;1.30;;;5.70;99.90;;;;;;5086923;28;20012;-77
2023/12/27 02:30:30;;;;;;;0.10;0.10;;;5.70;99.90;;;;;;5086689;28;20020;-75
2023/12/27 02:32:55;;;;;;;5.32;4.95;;;5.70;99.90;;;;;;5085487;28;20024;-78
2023/12/27 02:35:21;;;;;;;0.10;0.10;;;5.60;99.90;;;;;;5096112;28;20031;-76
2023/12/27 02:37:47;;;;;;;0.00;0.00;;;5.60;99.90;;;;;;5087361;28;20030;-78
2023/12/27 02:40:13;;;;;;;0.10;0.10;;;5.60;99.90;;;;;;5085037;28;20123;-79
2023/12/27 02:42:39;;;;;;;0.10;0.10;;;5.60;99.90;;;;;;5084780;28;20036;-79
2023/12/27 02:45:06;;;;;;;0.10;0.10;;;5.60;99.90;;;;;;5087516;28;20024;-75
2023/12/27 02:47:33;;;;;;;5.05;4.75;;;5.60;99.90;;;;;;5085333;28;20024;-78
2023/12/27 02:49:59;;;;;;;0.10;0.10;;;5.60;99.90;;;;;;5084628;28;20034;-79
2023/12/27 02:52:24;;;;;;;0.10;0.10;;;5.50;99.90;;;;;;5086286;28;20028;-75
2023/12/27 02:54:50;;;;;;;0.10;0.10;;;5.50;99.90;;;;;;5083474;28;20012;-77
2023/12/27 02:57:16;;;;;;;0.10;0.10;;;5.40;99.90;;;;;;5093260;28;20229;-78
2023/12/27 02:59:42;;;;;;;4.85;4.65;;;5.40;99.90;;;;;;5092237;28;20036;-78
2023/12/27 03:02:07;;;;;;;0.10;0.10;;;5.40;99.90;;;;;;5084708;28;20023;-77
2023/12/27 03:04:33;;;;;;;0.10;0.10;;;5.40;99.90;;;;;;5087395;28;20691;-78
2023/12/27 03:06:59;;;;;;;0.10;0.10;;;5.40;99.90;;;;;;5085475;28;20124;-77
2023/12/27 03:09:25;;;;;;;3.10;2.95;;;5.40;99.90;;;;;;5085691;28;20730;-78
2023/12/27 03:11:51;;;;;;;0.00;0.00;;;5.40;99.90;;;;;;5087391;28;20044;-79
2023/12/27 03:14:18;;;;;;;0.10;0.10;;;5.30;99.90;;;;;;5090093;28;20028;-76
2023/12/27 03:16:43;;;;;;;0.00;0.00;;;5.30;99.90;;;;;;5085308;28;20042;-76
2023/12/27 03:19:09;;;;;;;0.00;0.00;;;5.30;99.90;;;;;;5084934;28;20568;-75
2023/12/27 03:21:38;;;;;;;0.10;0.10;;;5.30;99.90;;;;;;5093095;28;20028;-78
2023/12/27 03:24:04;;;;;;;4.97;4.75;;;5.30;99.90;;;;;;5078661;28;20016;-76
2023/12/27 03:26:30;;;;;;;11.05;8.48;;;5.40;99.90;;;;;;5064096;28;20029;-77
2023/12/27 03:28:55;;;;;;;0.10;0.10;;;5.30;99.90;;;;;;5064740;28;20020;-76
2023/12/27 03:31:28;;;;;;;0.10;0.10;;;5.30;99.90;;;;;;5071319;28;20021;-80
2023/12/27 03:33:55;;;;;;;0.10;0.10;;;5.40;99.90;;;;;;5066445;28;20256;-80
2023/12/27 03:36:21;;;;;;;0.10;0.10;;;5.40;99.90;;;;;;5066222;28;20032;-77
2023/12/27 03:38:46;;;;;;;0.25;0.25;;;5.40;99.90;;;;;;5070533;28;20029;-77
2023/12/27 03:41:12;;;;;;;0.20;0.20;;;5.30;99.90;;;;;;5075241;28;20092;-80
2023/12/27 03:43:38;;;;;;;0.10;0.10;;;5.30;99.90;;;;;;5070231;28;20017;-77
2023/12/27 03:46:04;;;;;;;0.00;0.00;;;5.40;99.90;;;;;;5068239;28;20150;-77
2023/12/27 03:48:30;;;;;;;0.10;0.10;;;5.40;99.90;;;;;;5068123;28;20023;-76
2023/12/27 03:50:55;;;;;;;0.00;0.00;;;5.40;99.90;;;;;;5066979;28;20029;-76
2023/12/27 03:53:21;;;;;;;0.10;0.10;;;5.30;99.90;;;;;;5071201;28;20078;-80
2023/12/27 03:55:47;;;;;;;0.10;0.10;;;5.30;99.90;;;;;;5064056;28;20078;-78
2023/12/27 03:58:13;;;;;;;0.10;0.10;;;5.30;99.90;;;;;;5063801;28;20108;-79
2023/12/27 04:00:39;;;;;;;13.38;12.77;;;5.20;99.90;;;;;;5065183;28;20071;-76
2023/12/27 04:03:05;;;;;;;0.10;0.10;;;5.10;99.90;;;;;;5065982;28;20072;-80
2023/12/27 04:05:30;;;;;;;0.00;0.00;;;5.10;99.90;;;;;;5064174;28;20020;-77
2023/12/27 04:07:56;;;;;;;0.10;0.10;;;5.10;99.90;;;;;;5070663;28;20108;-81
2023/12/27 04:10:22;;;;;;;0.10;0.10;;;5.10;99.90;;;;;;5063083;28;20422;-78
2023/12/27 04:12:49;;;;;;;0.10;0.10;;;5.00;99.90;;;;;;5063924;28;20020;-76
2023/12/27 04:15:15;;;;;;;0.00;0.00;;;4.90;99.90;;;;;;5065030;28;20089;-75
2023/12/27 04:17:40;;;;;;;0.57;0.57;;;4.90;99.90;;;;;;5062028;28;20021;-78
2023/12/27 04:20:07;;;;;;;0.10;0.10;;;4.80;99.90;;;;;;5062612;28;20115;-76
2023/12/27 04:22:33;;;;;;;0.38;0.38;;;4.80;99.90;;;;;;5063604;28;20045;-79
2023/12/27 04:24:58;;;;;;;0.10;0.10;;;4.70;99.90;;;;;;5073093;28;20082;-76
2023/12/27 04:27:24;;;;;;;0.10;0.10;;;4.70;99.90;;;;;;5092288;28;20711;-77
2023/12/27 04:29:50;;;;;;;0.73;0.73;;;4.60;99.90;;;;;;5093321;28;20038;-79
2023/12/27 04:32:16;;;;;;;0.00;0.00;;;4.60;99.90;;;;;;5090189;28;20034;-77
2023/12/27 04:34:41;;;;;;;0.00;0.00;;;4.60;99.90;;;;;;5083646;28;20020;-75
2023/12/27 04:37:07;;;;;;;0.00;0.00;;;4.60;99.90;;;;;;5083414;28;20012;-76
2023/12/27 04:39:33;;;;;;;0.10;0.10;;;4.60;99.90;;;;;;5083959;28;20044;-77
2023/12/27 04:41:59;;;;;;;0.10;0.10;;;4.60;99.90;;;;;;5092897;28;20042;-80
2023/12/27 04:44:26;;;;;;;0.10;0.10;;;4.60;99.90;;;;;;5086380;28;20024;-81
2023/12/27 04:46:52;;;;;;;0.10;0.10;;;4.60;99.90;;;;;;5082837;28;20661;-76
2023/12/27 04:49:18;;;;;;;0.10;0.10;;;4.60;99.90;;;;;;5081653;28;20020;-75
2023/12/27 04:51:45;;;;;;;0.10;0.10;;;4.60;99.90;;;;;;5081505;28;20020;-80
2023/12/27 04:54:12;;;;;;;0.10;0.10;;;4.50;99.90;;;;;;5081163;28;20020;-78
2023/12/27 04:56:37;;;;;;;0.10;0.10;;;4.40;99.90;;;;;;5083524;28;20016;-77
2023/12/27 04:59:03;;;;;;;0.00;0.00;;;4.40;99.90;;;;;;5081513;28;20093;-74
2023/12/27 05:01:29;;;;;;;0.60;0.60;;;4.40;99.90;;;;;;5080904;28;20657;-79
2023/12/27 05:03:55;;;;;;;0.10;0.10;;;4.30;99.90;;;;;;5082877;28;20061;-79
2023/12/27 05:06:21;;;;;;;0.10;0.10;;;4.30;99.90;;;;;;5080997;28;20047;-78
2023/12/27 05:08:47;;;;;;;0.10;0.10;;;4.30;99.90;;;;;;5086208;28;20027;-75
2023/12/27 05:11:23;;;;;;;0.10;0.10;;;4.40;99.90;;;;;;5084404;28;20022;-76
2023/12/27 05:13:48;;;;;;;44.47;41.10;;;3.60;99.90;;;;;;5095056;28;20020;-80
2023/12/27 05:16:22;;;;;;;8.27;7.88;;;4.30;99.90;;;;;;5100062;28;20099;-80
2023/12/27 05:18:48;;;;;;;0.00;0.00;;;4.30;99.90;;;;;;5108464;28;20042;-74
2023/12/27 05:21:17;;;;;;;4.88;4.65;;;4.30;99.90;;;;;;5107213;28;20457;-76
2023/12/27 05:23:43;;;;;;;0.47;0.47;;;4.30;99.90;;;;;;5108101;28;20030;-76
2023/12/27 05:26:09;;;;;;;0.10;0.10;;;4.30;99.90;;;;;;5109182;28;20016;-80
2023/12/27 05:28:34;;;;;;;0.00;0.00;;;4.20;99.90;;;;;;5107213;28;20024;-76
2023/12/27 05:31:00;;;;;;;0.10;0.10;;;4.10;99.90;;;;;;5108268;28;20076;-78
2023/12/27 05:33:26;;;;;;;0.10;0.10;;;4.00;99.90;;;;;;5100859;28;20059;-81
2023/12/27 05:35:52;;;;;;;0.10;0.10;;;4.00;99.90;;;;;;5101166;28;20020;-78
2023/12/27 05:38:23;;;;;;;0.10;0.10;;;4.00;99.90;;;;;;5108180;28;20024;-75
2023/12/27 05:40:52;;;;;;;0.00;0.00;;;4.00;99.90;;;;;;5099765;28;20023;-74
2023/12/27 05:43:18;;;;;;;0.10;0.10;;;3.90;99.90;;;;;;5098656;28;20016;-80
2023/12/27 05:45:48;;;;;;;0.10;0.10;;;3.90;99.90;;;;;;5103163;28;20250;-76
2023/12/27 05:48:14;;;;;;;0.10;0.10;;;3.90;99.90;;;;;;5097500;28;20016;-78
2023/12/27 05:50:40;;;;;;;0.10;0.10;;;4.00;99.90;;;;;;5102743;28;20020;-77
2023/12/27 05:53:06;;;;;;;0.00;0.00;;;4.00;99.90;;;;;;5104430;28;20158;-79
2023/12/27 05:55:32;;;;;;;0.10;0.10;;;3.90;99.90;;;;;;5073041;28;20035;-78
2023/12/27 05:57:58;;;;;;;0.10;0.10;;;3.90;99.90;;;;;;5064233;28;20418;-79
2023/12/27 06:00:24;;;;;;;0.03;0.03;;;3.80;99.90;;;;;;5064200;28;20033;-80
2023/12/27 06:02:50;;;;;;;0.10;0.10;;;3.90;99.90;;;;;;5066997;28;20623;-79
2023/12/27 06:05:16;;;;;;;0.10;0.10;;;3.90;99.90;;;;;;5068641;28;20043;-78
2023/12/27 06:07:42;;;;;;;0.10;0.10;;;3.80;99.90;;;;;;5084780;28;20047;-78
2023/12/27 06:10:08;;;;;;;0.00;0.00;;;3.00;99.90;;;;;;5087525;28;20005;-79
2023/12/27 06:12:35;;;;;;;0.10;0.10;;;3.80;99.90;;;;;;5075300;28;20016;-78
2023/12/27 06:15:08;;;;;;;0.10;0.10;;;4.70;99.90;;;;;;5074600;28;20048;-80
2023/12/27 06:17:34;;;;;;;0.00;0.00;;;3.90;99.90;;;;;;5083568;28;20029;-80
2023/12/27 06:20:09;;;;;;;0.10;0.10;;;3.80;99.90;;;;;;5083994;28;20016;-83
2023/12/27 06:22:35;;;;;;;0.10;0.10;;;3.80;99.90;;;;;;5085960;28;20020;-78
2023/12/27 06:25:07;;;;;;;2.03;1.92;;;3.80;99.90;;;;;;5094574;28;20042;-78
2023/12/27 06:27:33;;;;;;;0.03;0.03;;;3.70;99.90;;;;;;5078914;28;20020;-78
2023/12/27 06:30:02;;;;;;;0.17;0.17;;;2.50;99.90;;;;;;5079793;28;20027;-78
2023/12/27 06:32:28;;;;;;;0.00;0.00;;;3.70;99.90;;;;;;5078433;28;20571;-79
2023/12/27 06:34:57;;;;;;;0.05;0.05;;;3.60;99.90;;;;;;5091031;28;20017;-78
2023/12/27 06:37:23;;;;;;;0.10;0.10;;;3.70;99.90;;;;;;5088034;28;20032;-81
2023/12/27 06:39:49;;;;;;;0.22;0.22;;;3.70;99.90;;;;;;5090207;28;20032;-78
2023/12/27 06:42:19;;;;;;;0.00;0.00;;;3.80;99.90;;;;;;5095924;28;20025;-79
2023/12/27 06:44:45;;;;;;;0.08;0.08;;;3.80;99.90;;;;;;5092537;28;20035;-78
2023/12/27 06:47:13;;;;;;;0.10;0.10;;;3.80;99.90;;;;;;5095259;28;20027;-76
2023/12/27 06:49:42;;;;;;;0.10;0.10;;;3.80;99.90;;;;;;5095395;28;20021;-79
2023/12/27 06:52:11;;;;;;;0.00;0.00;;;3.80;99.90;;;;;;5108949;23;20043;-82
2023/12/27 06:55:00;;;;;;;0.10;0.10;;;3.80;99.90;;;;;;5130635;28;20079;-80
2023/12/27 06:57:57;;;;;;;0.10;0.10;;;3.80;99.90;;;;;;5098002;28;20398;-78
2023/12/27 07:00:24;;;;;;;6.40;5.97;;;3.80;99.90;;;;;;5112205;28;20062;-83
2023/12/27 07:03:11;;;;;;;0.08;0.08;;;;;;;;;;5188922;22;20032;-81
2023/12/27 07:05:45;;;;;;;0.10;0.10;;;3.80;99.90;;;;;;5114893;28;20087;-78
2023/12/27 07:08:12;;;;;;;0.15;0.15;;;3.80;99.90;;;;;;5130312;28;20024;-78
2023/12/27 07:10:43;;;;;;;0.10;0.10;;;;;;;;;;5133151;28;20035;-77
2023/12/27 07:13:13;;;;;;;0.10;0.10;;;3.90;99.90;;;;;;5118210;28;20019;-76
2023/12/27 07:15:39;;;;;;;0.00;0.00;;;;;;;;;;5129630;28;20007;-77
2023/12/27 07:18:10;;;;;;;0.00;0.00;;;;;;;;;;5132269;28;20010;-80
2023/12/27 07:20:35;;;;;;;0.10;0.10;;;3.90;99.90;;;;;;5124198;28;20031;-79
2023/12/27 07:23:07;;;;;;;0.00;0.00;;;3.90;99.90;;;;;;5121075;28;20083;-79
2023/12/27 07:25:35;;;;;;;0.10;0.10;;;3.90;99.90;;;;;;5119542;28;20015;-81
2023/12/27 07:28:06;;;;;;;0.10;0.10;;;3.90;99.90;;;;;;5123167;28;20023;-78
2023/12/27 07:30:33;;;;;;;0.10;0.10;;;4.00;99.90;;;;;;5120392;28;20031;-78
2023/12/27 07:33:06;;;;;;;0.10;0.10;;;4.00;99.90;;;;;;5120224;28;20050;-78
2023/12/27 07:35:32;;;;;;;0.00;0.00;;;;;;;;;;5119285;28;20032;-79
2023/12/27 07:38:00;;;;;;;0.00;0.00;;;;;;;;;;5116945;28;20028;-79
2023/12/27 07:40:27;;;;;;;0.00;0.00;;;;;;;;;;5115819;28;20106;-79
2023/12/27 07:43:05;;;;;;;0.10;0.10;;;4.20;99.90;;;;;;5129341;28;20028;-78
2023/12/27 07:45:37;;;;;;;0.25;0.25;;;4.20;99.90;;;;;;5133084;28;20039;-79
2023/12/27 07:48:09;;;;;;;0.05;0.05;;;4.40;99.90;;;;;;5118602;28;20030;-83
2023/12/27 07:50:36;;;;;;;0.08;0.08;;;4.50;99.90;;;;;;5127654;28;20035;-79
2023/12/27 07:53:04;;;;;;;0.10;0.10;;;4.60;99.90;;;;;;5133289;28;20015;-78
2023/12/27 07:55:30;;;;;;;0.30;0.30;;;4.60;99.90;;;;;;5132514;27;20034;-79
2023/12/27 07:58:16;;;;;;;0.00;0.00;;;4.60;99.90;;;;;;5139773;27;20065;-79
2023/12/27 08:00:44;;;;;;;0.10;0.10;;;4.80;99.90;;;;;;5123226;28;20044;-81
2023/12/27 08:03:10;;;;;;;0.10;0.10;;;;;;;;;;5126555;28;20118;-80
2023/12/27 08:05:37;;;;;;;0.10;0.10;;;4.90;99.90;;;;;;5133160;28;20047;-78
2023/12/27 08:08:10;;;;;;;0.00;0.00;;;5.10;99.90;;;;;;5130753;28;20020;-77
2023/12/27 08:10:48;;;;;;;0.10;0.10;;;5.30;99.90;;;;;;5131453;28;20058;-79
2023/12/27 08:13:14;;;;;;;0.10;0.10;;;5.50;99.90;;;;;;5131298;28;20023;-79
2023/12/27 08:15:40;;;;;;;4.40;4.25;;;5.50;99.90;;;;;;5108926;28;20054;-81
2023/12/27 08:18:06;;;;;;;18.60;17.83;;;5.70;99.90;;;;;;5113647;28;20452;-81
2023/12/27 08:20:35;;;;;;;0.10;0.10;;;5.80;99.90;;;;;;5116509;28;20043;-78
2023/12/27 08:23:01;;;;;;;0.00;0.00;;;5.90;99.90;;;;;;5121891;28;20004;-80
2023/12/27 08:25:36;;;;;;;0.10;0.10;;;6.00;99.90;;;;;;5125408;28;20037;-80
2023/12/27 08:28:02;;;;;;;0.80;0.80;;;6.10;99.90;;;;;;5175397;22;20055;-79
2023/12/27 08:30:29;;;;;;;37.63;35.53;;;6.20;99.90;;;;;;5211017;22;20052;-77
2023/12/27 08:32:57;;;;;;;0.95;0.95;;;6.30;99.90;;;;;;5099880;28;20032;-80
2023/12/27 08:35:23;;;;;;;4.35;4.15;;;6.40;99.90;;;;;;5110171;28;20018;-78
2023/12/27 08:38:00;;;;;;;0.30;0.30;;;6.50;99.90;;;;;;5110037;28;20056;-79
2023/12/27 08:40:48;;;;;;;0.10;0.10;;;6.60;99.90;;;;;;5094321;28;20020;-78
2023/12/27 08:43:21;;;;;;;28.48;16.45;;;6.70;99.90;;;;;;5093886;28;20197;-78
2023/12/27 08:45:49;;;;;;;0.68;0.68;;;6.80;99.90;;;;;;5109391;28;20024;-78
2023/12/27 08:48:20;;;;;;;0.10;0.10;;;6.80;99.90;;;;;;5096813;28;20016;-78
2023/12/27 08:50:59;;;;;;;0.30;0.30;;;7.00;99.90;;;;;;5093830;28;20072;-77
2023/12/27 08:53:26;;;;;;;0.10;0.10;;;7.10;99.90;;;;;;5087164;28;20025;-78
2023/12/27 08:55:54;;;;;;;0.10;0.10;;;6.90;99.90;;;;;;5078028;28;20021;-82
2023/12/27 08:58:22;;;;;;;0.10;0.10;;;7.10;99.90;;;;;;5085134;28;20017;-78
2023/12/27 09:01:09;;;;;;;0.13;0.13;;;7.20;99.90;;;;;;5074744;28;20061;-81
2023/12/27 09:03:35;;;;;;;0.30;0.30;;;7.10;99.90;;;;;;5068108;28;20043;-79
2023/12/27 09:06:01;;;;;;;0.77;0.77;;;7.30;99.90;;;;;;5071275;28;20502;-81
2023/12/27 09:08:39;;;;;;;0.43;0.43;;;7.40;99.90;;;;;;5064387;23;20036;-79
2023/12/27 09:11:05;;;;;;;0.10;0.10;;;7.50;99.90;;;;;;5037058;28;20010;-78
2023/12/27 09:13:34;;;;;;;0.10;0.10;;;7.50;99.90;;;;;;5056314;28;20053;-79
2023/12/27 09:16:06;;;;;;;2.22;2.15;;;7.90;99.90;;;;;;5022593;28;20090;-78
2023/12/27 09:18:34;;;;;;;0.10;0.10;;;7.90;99.90;;;;;;5051639;28;20035;-78
2023/12/27 09:21:08;;;;;;;0.10;0.10;;;8.20;99.90;;;;;;5030708;28;20127;-76
2023/12/27 09:23:35;;;;;;;0.20;0.20;;;8.10;99.90;;;;;;5051353;28;20013;-79
2023/12/27 09:26:14;;;;;;;1.10;1.10;;;8.20;99.90;;;;;;5047243;28;20033;-77
2023/12/27 09:28:40;;;;;;;0.57;0.57;;;9.80;99.90;;;;;;5048358;28;20014;-75
2023/12/27 09:31:08;;;;;;;0.15;0.15;;;9.60;99.90;;;;;;5035001;28;20013;-79
2023/12/27 09:33:47;;;;;;;0.20;0.20;;;9.50;99.90;;;;;;5055062;28;20056;-76
2023/12/27 09:36:32;;;;;;;20.05;16.77;;;9.30;99.90;;;;;;5052673;28;20097;-77
2023/12/27 09:39:01;;;;;;;0.10;0.10;;;9.30;99.90;;;;;;5023076;28;20025;-79
2023/12/27 09:41:43;;;;;;;50.40;44.95;;;9.30;99.90;;;;;;5059522;28;20076;-80
2023/12/27 09:44:39;;;;;;;0.20;0.20;;;9.40;99.90;;;;;;5057085;28;20037;-78
2023/12/27 09:47:09;;;;;;;1.33;1.27;;;9.00;99.90;;;;;;4997406;28;20026;-78
2023/12/27 09:49:36;;;;;;;0.30;0.30;;;9.50;99.90;;;;;;5006522;28;20022;-75
2023/12/27 09:52:07;;;;;;;0.28;0.28;;;9.50;99.90;;;;;;5006419;28;20030;-75
2023/12/27 09:54:33;;;;;;;0.50;0.50;;;9.60;99.90;;;;;;4997193;28;20014;-79
2023/12/27 09:57:00;;;;;;;0.10;0.10;;;9.70;99.90;;;;;;5016503;28;20105;-79
2023/12/27 09:59:39;;;;;;;0.20;0.20;;;9.90;99.90;;;;;;5012831;28;20036;-78
2023/12/27 10:02:16;;;;;;;0.20;0.20;;;9.90;99.90;;;;;;5012560;28;20051;-78
2023/12/27 10:05:01;;;;;;;0.55;0.55;;;10.00;99.90;;;;;;5004796;28;20034;-76
2023/12/27 10:07:30;;;;;;;0.20;0.20;;;10.00;99.90;;;;;;5012961;28;20034;-77
2023/12/27 10:09:59;;;;;;;19.92;19.05;;;10.20;99.90;;;;;;4996307;28;20114;-77
2023/12/27 10:12:28;;;;;;;0.55;0.55;;;10.20;99.90;;;;;;5003786;28;20433;-76
2023/12/27 10:14:57;;;;;;;3.40;3.13;;;10.40;99.90;;;;;;5004208;28;20555;-77
2023/12/27 10:17:23;;;;;;;3.15;3.00;;;10.50;99.90;;;;;;5013090;28;20105;-75
2023/12/27 10:19:49;;;;;;;1.10;1.10;;;8.90;99.90;;;;;;5036858;28;20041;-77
2023/12/27 10:22:16;;;;;;;9.48;8.73;;;;;;;;;;5053582;28;20031;-81
2023/12/27 10:24:48;;;;;;;0.63;0.63;;;10.70;99.90;;;;;;5047124;28;20013;-81
2023/12/27 10:27:14;;;;;;;3.10;2.95;;;10.60;99.90;;;;;;5046607;28;20025;-76
2023/12/27 10:29:56;;;;;;;24.85;22.67;;;10.50;99.90;;;;;;5043338;28;20031;-78
2023/12/27 10:32:22;;;;;;;0.25;0.25;;;10.60;99.90;;;;;;5058476;28;20021;-76
2023/12/27 10:34:53;;;;;;;0.43;0.43;;;10.70;99.90;;;;;;5049304;28;20450;-77
2023/12/27 10:37:23;;;;;;;0.32;0.32;;;10.80;99.90;;;;;;5052068;28;20029;-79
2023/12/27 10:39:49;;;;;;;0.30;0.30;;;11.00;99.90;;;;;;5060046;28;20368;-76
2023/12/27 10:42:16;;;;;;;23.00;12.93;;;11.10;99.90;;;;;;5052988;28;20096;-76
2023/12/27 10:44:48;;;;;;;3.22;3.08;;;11.10;99.90;;;;;;5056293;28;20013;-75
2023/12/27 10:47:31;;;;;;;0.43;0.43;;;11.50;99.90;;;;;;5048180;28;20028;-79
2023/12/27 10:49:59;;;;;;;0.73;0.73;;;11.40;99.90;;;;;;5045923;28;20029;-76
2023/12/27 10:52:25;;;;;;;0.35;0.35;;;11.40;99.90;;;;;;5048421;28;20086;-76
2023/12/27 10:54:56;;;;;;;0.57;0.57;;;11.40;99.90;;;;;;5043739;28;20086;-76
2023/12/27 10:57:23;;;;;;;1.55;1.45;;;11.40;99.90;;;;;;5040071;28;20111;-81
2023/12/27 10:59:50;;;;;;;0.47;0.47;;;11.50;99.90;;;;;;5062394;28;20521;-78
2023/12/27 11:02:18;;;;;;;0.73;0.73;;;11.80;99.90;;;;;;5061969;28;20025;-80
2023/12/27 11:04:45;;;;;;;1.17;1.17;;;11.90;99.90;;;;;;5061428;28;20154;-78
2023/12/27 11:07:12;;;;;;;0.52;0.52;;;12.20;99.90;;;;;;5043010;28;20043;-81
2023/12/27 11:09:41;;;;;;;16.65;4.57;;;12.40;99.90;;;;;;5042941;28;20024;-79
2023/12/27 11:12:09;;;;;;;0.25;0.25;;;12.60;99.90;;;;;;5060862;28;20029;-83
2023/12/27 11:14:37;;;;;;;0.63;0.63;;;12.40;99.90;;;;;;5060987;28;20070;-83
2023/12/27 11:17:08;;;;;;;10.23;9.48;;;12.70;99.90;;;;;;5042852;28;20029;-76
2023/12/27 11:19:34;;;;;;;0.50;0.50;;;12.70;99.90;;;;;;5060038;28;20337;-76
2023/12/27 11:22:00;;;;;;;4.45;4.25;;;12.90;99.90;;;;;;5060345;28;20406;-79
2023/12/27 11:24:26;;;;;;;0.38;0.38;;;13.00;99.90;;;;;;5061218;28;20024;-75
2023/12/27 11:27:01;;;;;;;14.43;13.40;;;13.00;99.90;;;;;;5051301;28;20053;-83
2023/12/27 11:29:29;;;;;;;0.43;0.43;;;12.80;99.90;;;;;;5040201;28;20059;-76
2023/12/27 11:31:58;;;;;;;2.95;2.85;;;12.90;99.90;;;;;;5040409;28;20024;-76
2023/12/27 11:34:24;;;;;;;0.20;0.20;;;13.10;99.90;;;;;;5040364;28;20044;-79
2023/12/27 11:36:51;;;;;;;2.40;2.30;;;13.20;99.90;;;;;;5022577;28;20025;-77
2023/12/27 11:39:20;;;;;;;0.77;0.77;;;13.00;99.90;;;;;;5040121;28;20029;-76
2023/12/27 11:41:47;;;;;;;60.72;10.13;;;12.80;99.90;;;;;;5040151;28;20587;-76
2023/12/27 11:44:14;;;;;;;0.30;0.30;;;12.90;99.90;;;;;;5041216;28;20028;-77
2023/12/27 11:46:42;;;;;;;1.77;1.67;;;13.00;99.90;;;;;;5039975;28;20096;-81
2023/12/27 11:49:08;;;;;;;0.30;0.30;;;13.00;99.90;;;;;;5039902;28;20009;-80
2023/12/27 11:51:38;;;;;;;0.40;0.40;;;12.90;99.90;;;;;;5040360;28;20029;-78
2023/12/27 11:54:07;;;;;;;0.30;0.30;;;13.10;99.90;;;;;;5039956;28;20017;-82
2023/12/27 11:56:37;;;;;;;0.82;0.82;;;13.30;99.90;;;;;;5021981;28;20017;-77
2023/12/27 11:59:08;;;;;;;0.73;0.73;;;13.40;99.90;;;;;;5038278;28;20501;-76
2023/12/27 12:01:36;;;;;;;0.75;0.75;;;13.50;99.90;;;;;;5039173;28;20139;-77
2023/12/27 12:04:10;;;;;;;0.93;0.93;;;13.60;99.90;;;;;;5039333;28;20144;-77
2023/12/27 12:06:47;;;;;;;1.65;1.55;;;13.70;99.90;;;;;;5039100;28;20426;-84
2023/12/27 12:09:15;;;;;;;14.65;13.85;;;13.90;99.90;;;;;;5039932;28;20060;-78
2023/12/27 12:11:44;;;;;;;1.77;1.75;;;13.90;99.90;;;;;;5021406;28;20683;-80
2023/12/27 12:14:11;;;;;;;3.15;3.00;;;14.00;99.90;;;;;;5038989;28;20710;-76
2023/12/27 12:16:38;;;;;;;1.00;1.00;;;16.40;99.90;;;;;;5039099;28;20041;-77
2023/12/27 12:19:08;;;;;;;0.88;0.88;;;13.70;99.90;;;;;;5039174;28;20029;-75
2023/12/27 12:21:34;;;;;;;0.20;0.20;;;13.50;99.90;;;;;;5039287;28;20017;-77
2023/12/27 12:24:09;;;;;;;2.25;2.15;;;13.50;99.90;;;;;;5039038;28;20025;-79
2023/12/27 12:26:35;;;;;;;3.85;3.60;;;13.70;99.90;;;;;;5022240;28;20623;-74
2023/12/27 12:29:03;;;;;;;2.88;2.67;;;13.80;99.90;;;;;;5037631;28;20032;-75
2023/12/27 12:31:32;;;;;;;0.68;0.68;;;13.50;99.90;;;;;;5038244;28;20732;-75
2023/12/27 12:33:58;;;;;;;0.40;0.40;;;13.70;99.90;;;;;;5038149;28;20547;-83
2023/12/27 12:36:25;;;;;;;5.40;4.95;;;14.00;99.90;;;;;;5039141;28;20036;-75
2023/12/27 12:38:52;;;;;;;3.03;2.20;;;14.10;99.90;;;;;;5039653;28;20044;-80
2023/12/27 12:41:18;;;;;;;0.30;0.30;;;14.40;99.90;;;;;;5040087;28;20114;-77
2023/12/27 12:43:44;;;;;;;4.43;4.22;;;14.50;99.90;;;;;;5041058;28;20703;-85
2023/12/27 12:46:13;;;;;;;0.47;0.47;;;14.60;99.90;;;;;;5041228;28;20024;-82
2023/12/27 12:48:39;;;;;;;16.23;11.32;;;14.70;99.90;;;;;;5039245;28;20021;-75
2023/12/27 12:51:12;;;;;;;1.98;1.90;;;14.70;99.90;;;;;;5040701;28;20063;-75
2023/12/27 12:53:38;;;;;;;0.65;0.65;;;14.50;99.90;;;;;;5034392;28;20040;-79
2023/12/27 12:56:06;;;;;;;4.68;4.32;;;14.40;99.90;;;;;;5039673;28;20435;-74
2023/12/27 12:58:33;;;;;;;3.92;3.72;;;14.40;99.90;;;;;;5041037;28;20368;-80
2023/12/27 13:00:59;;;;;;;4.53;4.22;;;14.20;99.90;;;;;;5039503;28;20665;-75